PILOTS ONLINE: 314    ATC ONLINE: 46

KSNA

John Wayne Airport-Orange County Airport

Location

IATA SNA
City Santa Ana
Country  United States
Latitude 33° 40' 32" N
Longitude 117° 52' 4" W
Elevation 56 ft
Type Large Airport

Map

Weather

METAR
2014/09/30 22:53
KSNA 302253Z 26006KT 10SM CLR 28/15 A2976 RMK AO2 SLP077 T02830150 $
TAF
2014/09/30 18:24
TAF KSNA 301720Z 3018/0118 VRB04KT P6SM SKC 
     FM302000 22008KT P6SM SKC 
     FM010300 VRB04KT P6SM SCT010 
     FM011000 VRB04KT P6SM OVC008 
     FM011600 VRB04KT P6SM SCT010

Runways

01L/19R 5700 ft / 150 ft
01R/19L 2887 ft / 75 ft

Outbound flights

Callsign Flying to Pilot ATD/STD ETA Aircraft
SWA7358  KPHX - Phoenix
United States
Wesley Frost
926705
23:18 00:09 B738

Inbound flights

Callsign Flying from Pilot ATD ETA Aircraft